sensor_id;sensor_type;location;lat;lon;timestamp;pressure;altitude;pressure_sealevel;temperature;humidity
6506;BME280;3286;49.858;8.768;2023-02-14T00:01:15;101134.41;;;3.57;55.06
6506;BME280;3286;49.858;8.768;2023-02-14T00:03:41;101128.94;;;3.39;55.42
6506;BME280;3286;49.858;8.768;2023-02-14T00:06:10;101132.81;;;3.29;56.36
6506;BME280;3286;49.858;8.768;2023-02-14T00:08:37;101133.59;;;3.31;56.23
6506;BME280;3286;49.858;8.768;2023-02-14T00:11:05;101134.91;;;3.19;56.24
6506;BME280;3286;49.858;8.768;2023-02-14T00:13:33;101142.81;;;3.17;57.03
6506;BME280;3286;49.858;8.768;2023-02-14T00:15:59;101136.97;;;3.35;56.30
6506;BME280;3286;49.858;8.768;2023-02-14T00:18:26;101145.00;;;3.04;56.69
6506;BME280;3286;49.858;8.768;2023-02-14T00:21:13;101141.22;;;3.13;56.73
6506;BME280;3286;49.858;8.768;2023-02-14T00:23:40;101141.09;;;3.40;55.86
6506;BME280;3286;49.858;8.768;2023-02-14T00:26:12;101143.41;;;3.00;56.81
6506;BME280;3286;49.858;8.768;2023-02-14T00:28:39;101143.16;;;3.32;55.97
6506;BME280;3286;49.858;8.768;2023-02-14T00:31:06;101142.59;;;2.98;55.85
6506;BME280;3286;49.858;8.768;2023-02-14T00:33:34;101143.97;;;3.09;55.39
6506;BME280;3286;49.858;8.768;2023-02-14T00:36:01;101141.47;;;3.06;56.46
6506;BME280;3286;49.858;8.768;2023-02-14T00:38:28;101149.16;;;3.10;56.28
6506;BME280;3286;49.858;8.768;2023-02-14T00:40:55;101138.41;;;3.18;56.86
6506;BME280;3286;49.858;8.768;2023-02-14T00:43:22;101144.22;;;3.01;57.46
6506;BME280;3286;49.858;8.768;2023-02-14T00:45:48;101138.41;;;3.18;57.60
6506;BME280;3286;49.858;8.768;2023-02-14T00:48:15;101125.72;;;3.32;56.72
6506;BME280;3286;49.858;8.768;2023-02-14T00:50:43;101133.06;;;2.97;57.02
6506;BME280;3286;49.858;8.768;2023-02-14T00:53:11;101117.28;;;3.50;56.05
6506;BME280;3286;49.858;8.768;2023-02-14T00:55:37;101123.09;;;3.09;57.67
6506;BME280;3286;49.858;8.768;2023-02-14T00:58:04;101123.16;;;3.07;57.75
6506;BME280;3286;49.858;8.768;2023-02-14T01:00:30;101121.53;;;3.28;57.08
6506;BME280;3286;49.858;8.768;2023-02-14T01:02:57;101125.31;;;3.19;58.55
6506;BME280;3286;49.858;8.768;2023-02-14T01:05:24;101125.78;;;3.31;57.54
6506;BME280;3286;49.858;8.768;2023-02-14T01:07:52;101130.88;;;3.34;56.76
6506;BME280;3286;49.858;8.768;2023-02-14T01:10:18;101134.13;;;3.41;55.86
6506;BME280;3286;49.858;8.768;2023-02-14T01:12:45;101133.94;;;3.22;55.62
6506;BME280;3286;49.858;8.768;2023-02-14T01:15:12;101134.53;;;3.30;55.79
6506;BME280;3286;49.858;8.768;2023-02-14T01:17:38;101134.69;;;3.00;55.83
6506;BME280;3286;49.858;8.768;2023-02-14T01:20:06;101128.69;;;2.98;55.56
6506;BME280;3286;49.858;8.768;2023-02-14T01:22:34;101131.59;;;2.63;55.78
6506;BME280;3286;49.858;8.768;2023-02-14T01:25:02;101140.94;;;2.70;56.25
6506;BME280;3286;49.858;8.768;2023-02-14T01:27:29;101129.91;;;3.13;54.68
6506;BME280;3286;49.858;8.768;2023-02-14T01:29:56;101140.56;;;2.81;55.47
6506;BME280;3286;49.858;8.768;2023-02-14T01:32:22;101134.06;;;2.68;56.07
6506;BME280;3286;49.858;8.768;2023-02-14T01:34:49;101141.19;;;2.63;55.60
6506;BME280;3286;49.858;8.768;2023-02-14T01:37:15;101143.38;;;2.50;57.00
6506;BME280;3286;49.858;8.768;2023-02-14T01:39:42;101138.31;;;2.16;58.09
6506;BME280;3286;49.858;8.768;2023-02-14T01:42:10;101141.28;;;2.33;57.72
6506;BME280;3286;49.858;8.768;2023-02-14T01:44:59;101130.81;;;2.61;56.23
6506;BME280;3286;49.858;8.768;2023-02-14T01:47:28;101141.28;;;2.59;57.06
6506;BME280;3286;49.858;8.768;2023-02-14T01:49:59;101133.19;;;2.40;56.94
6506;BME280;3286;49.858;8.768;2023-02-14T01:52:32;101140.28;;;2.37;58.14
6506;BME280;3286;49.858;8.768;2023-02-14T01:55:05;101131.91;;;2.54;56.45
6506;BME280;3286;49.858;8.768;2023-02-14T01:57:38;101132.06;;;2.49;56.79
6506;BME280;3286;49.858;8.768;2023-02-14T02:00:07;101134.00;;;2.69;56.17
6506;BME280;3286;49.858;8.768;2023-02-14T02:02:52;101138.16;;;2.50;57.30
6506;BME280;3286;49.858;8.768;2023-02-14T02:05:19;101137.50;;;2.41;56.78
6506;BME280;3286;49.858;8.768;2023-02-14T02:07:48;101135.81;;;2.67;56.02
6506;BME280;3286;49.858;8.768;2023-02-14T02:10:16;101126.25;;;2.41;56.50
6506;BME280;3286;49.858;8.768;2023-02-14T02:12:44;101124.88;;;2.29;57.45
6506;BME280;3286;49.858;8.768;2023-02-14T02:15:11;101121.13;;;2.38;57.31
6506;BME280;3286;49.858;8.768;2023-02-14T02:17:46;101130.56;;;2.42;56.99
6506;BME280;3286;49.858;8.768;2023-02-14T02:20:43;101121.53;;;2.25;57.36
6506;BME280;3286;49.858;8.768;2023-02-14T02:26:55;101120.38;;;2.07;58.18
6506;BME280;3286;49.858;8.768;2023-02-14T02:30:14;101125.28;;;2.16;58.17
6506;BME280;3286;49.858;8.768;2023-02-14T02:39:03;101128.47;;;2.26;57.73
6506;BME280;3286;49.858;8.768;2023-02-14T02:41:46;101126.28;;;2.12;58.46
6506;BME280;3286;49.858;8.768;2023-02-14T02:44:17;101122.34;;;2.27;58.36
6506;BME280;3286;49.858;8.768;2023-02-14T02:46:54;101120.28;;;2.63;57.60
6506;BME280;3286;49.858;8.768;2023-02-14T02:49:35;101115.00;;;2.39;57.43
6506;BME280;3286;49.858;8.768;2023-02-14T02:52:27;101109.56;;;2.18;57.33
6506;BME280;3286;49.858;8.768;2023-02-14T02:55:18;101116.22;;;2.28;56.62
6506;BME280;3286;49.858;8.768;2023-02-14T02:57:49;101108.50;;;1.97;57.43
6506;BME280;3286;49.858;8.768;2023-02-14T03:00:17;101113.25;;;1.84;57.65
6506;BME280;3286;49.858;8.768;2023-02-14T03:02:48;101110.28;;;1.66;57.61
6506;BME280;3286;49.858;8.768;2023-02-14T03:05:33;101112.94;;;1.35;58.56
6506;BME280;3286;49.858;8.768;2023-02-14T03:08:02;101106.00;;;1.65;58.44
6506;BME280;3286;49.858;8.768;2023-02-14T03:10:31;101110.88;;;1.46;58.45
6506;BME280;3286;49.858;8.768;2023-02-14T03:16:14;101120.41;;;1.47;58.60
6506;BME280;3286;49.858;8.768;2023-02-14T03:18:56;101118.13;;;1.66;58.57
6506;BME280;3286;49.858;8.768;2023-02-14T03:21:32;101119.91;;;1.34;59.96
6506;BME280;3286;49.858;8.768;2023-02-14T03:24:08;101122.00;;;1.81;58.08
6506;BME280;3286;49.858;8.768;2023-02-14T03:26:42;101109.28;;;1.72;58.13
6506;BME280;3286;49.858;8.768;2023-02-14T03:29:18;101115.13;;;1.19;59.98
6506;BME280;3286;49.858;8.768;2023-02-14T03:31:56;101126.28;;;1.84;58.49
6506;BME280;3286;49.858;8.768;2023-02-14T03:34:30;101136.66;;;1.85;58.08
6506;BME280;3286;49.858;8.768;2023-02-14T03:37:02;101131.97;;;1.97;57.67
6506;BME280;3286;49.858;8.768;2023-02-14T03:39:38;101131.81;;;1.43;59.34
6506;BME280;3286;49.858;8.768;2023-02-14T03:42:09;101139.88;;;1.94;58.31
6506;BME280;3286;49.858;8.768;2023-02-14T03:44:39;101138.84;;;1.71;59.20
6506;BME280;3286;49.858;8.768;2023-02-14T03:47:10;101138.84;;;1.71;59.14
6506;BME280;3286;49.858;8.768;2023-02-14T03:49:41;101140.88;;;1.29;60.38
6506;BME280;3286;49.858;8.768;2023-02-14T03:52:10;101130.84;;;1.15;60.84
6506;BME280;3286;49.858;8.768;2023-02-14T03:54:39;101128.91;;;1.22;60.03
6506;BME280;3286;49.858;8.768;2023-02-14T03:57:12;101122.63;;;1.59;59.50
6506;BME280;3286;49.858;8.768;2023-02-14T03:59:41;101128.56;;;1.35;59.29
6506;BME280;3286;49.858;8.768;2023-02-14T04:02:10;101130.13;;;1.40;59.24
6506;BME280;3286;49.858;8.768;2023-02-14T04:04:42;101119.50;;;1.48;59.63
6506;BME280;3286;49.858;8.768;2023-02-14T04:07:10;101134.78;;;0.97;61.00
6506;BME280;3286;49.858;8.768;2023-02-14T04:09:39;101127.72;;;1.34;59.51
6506;BME280;3286;49.858;8.768;2023-02-14T04:12:06;101134.69;;;1.34;59.41
6506;BME280;3286;49.858;8.768;2023-02-14T04:14:33;101131.59;;;1.51;58.66
6506;BME280;3286;49.858;8.768;2023-02-14T04:17:00;101137.81;;;1.47;58.42
6506;BME280;3286;49.858;8.768;2023-02-14T04:19:43;101127.91;;;1.58;58.31
6506;BME280;3286;49.858;8.768;2023-02-14T04:22:10;101140.81;;;0.99;58.88
6506;BME280;3286;49.858;8.768;2023-02-14T04:24:37;101143.00;;;1.47;58.04
6506;BME280;3286;49.858;8.768;2023-02-14T04:27:05;101142.31;;;1.08;59.16
6506;BME280;3286;49.858;8.768;2023-02-14T04:29:38;101137.69;;;1.18;59.08
6506;BME280;3286;49.858;8.768;2023-02-14T04:32:07;101134.63;;;1.04;59.10
6506;BME280;3286;49.858;8.768;2023-02-14T04:34:34;101140.34;;;0.85;59.53
6506;BME280;3286;49.858;8.768;2023-02-14T04:37:00;101139.13;;;0.97;59.02
6506;BME280;3286;49.858;8.768;2023-02-14T04:39:27;101141.16;;;0.85;59.15
6506;BME280;3286;49.858;8.768;2023-02-14T04:41:54;101138.47;;;1.22;58.58
6506;BME280;3286;49.858;8.768;2023-02-14T04:44:22;101135.53;;;1.01;58.26
6506;BME280;3286;49.858;8.768;2023-02-14T04:46:49;101141.53;;;1.36;56.87
6506;BME280;3286;49.858;8.768;2023-02-14T04:49:16;101140.56;;;1.09;57.71
6506;BME280;3286;49.858;8.768;2023-02-14T04:51:43;101152.00;;;1.35;56.93
6506;BME280;3286;49.858;8.768;2023-02-14T04:54:10;101142.78;;;0.90;57.92
6506;BME280;3286;49.858;8.768;2023-02-14T04:56:37;101138.72;;;1.44;57.05
6506;BME280;3286;49.858;8.768;2023-02-14T04:59:03;101140.75;;;1.01;58.14
6506;BME280;3286;49.858;8.768;2023-02-14T05:01:32;101136.69;;;0.91;58.70
6506;BME280;3286;49.858;8.768;2023-02-14T05:03:58;101146.22;;;0.57;59.19
6506;BME280;3286;49.858;8.768;2023-02-14T05:06:25;101148.50;;;1.04;58.03
6506;BME280;3286;49.858;8.768;2023-02-14T05:08:53;101140.31;;;1.50;56.78
6506;BME280;3286;49.858;8.768;2023-02-14T05:11:20;101138.56;;;1.19;57.24
6506;BME280;3286;49.858;8.768;2023-02-14T05:13:46;101142.19;;;1.13;57.41
6506;BME280;3286;49.858;8.768;2023-02-14T05:16:13;101141.66;;;1.00;57.65
6506;BME280;3286;49.858;8.768;2023-02-14T05:18:41;101142.00;;;1.19;57.27
6506;BME280;3286;49.858;8.768;2023-02-14T05:21:07;101138.84;;;1.08;58.23
6506;BME280;3286;49.858;8.768;2023-02-14T05:23:35;101140.75;;;1.01;57.47
6506;BME280;3286;49.858;8.768;2023-02-14T05:26:01;101139.63;;;1.11;57.27
6506;BME280;3286;49.858;8.768;2023-02-14T05:28:28;101144.78;;;1.13;57.68
6506;BME280;3286;49.858;8.768;2023-02-14T05:30:55;101139.47;;;0.50;58.76
6506;BME280;3286;49.858;8.768;2023-02-14T05:33:22;101138.53;;;0.87;58.11
6506;BME280;3286;49.858;8.768;2023-02-14T05:35:51;101142.75;;;1.24;56.64
6506;BME280;3286;49.858;8.768;2023-02-14T05:38:18;101143.25;;;1.06;56.59
6506;BME280;3286;49.858;8.768;2023-02-14T05:40:45;101142.38;;;0.72;57.38
6506;BME280;3286;49.858;8.768;2023-02-14T05:43:11;101144.19;;;0.70;57.71
6506;BME280;3286;49.858;8.768;2023-02-14T05:45:38;101142.88;;;0.86;57.43
6506;BME280;3286;49.858;8.768;2023-02-14T05:48:04;101151.94;;;1.05;56.53
6506;BME280;3286;49.858;8.768;2023-02-14T05:50:31;101143.84;;;0.82;56.89
6506;BME280;3286;49.858;8.768;2023-02-14T05:52:59;101140.53;;;0.42;57.96
6506;BME280;3286;49.858;8.768;2023-02-14T05:55:26;101139.88;;;0.67;57.38
6506;BME280;3286;49.858;8.768;2023-02-14T05:57:52;101148.88;;;0.90;56.98
6506;BME280;3286;49.858;8.768;2023-02-14T06:00:20;101145.34;;;0.58;58.01
6506;BME280;3286;49.858;8.768;2023-02-14T06:02:47;101146.44;;;0.84;57.17
6506;BME280;3286;49.858;8.768;2023-02-14T06:05:14;101147.72;;;1.00;57.55
6506;BME280;3286;49.858;8.768;2023-02-14T06:07:42;101141.53;;;1.36;56.52
6506;BME280;3286;49.858;8.768;2023-02-14T06:10:16;101142.63;;;1.29;56.71
6506;BME280;3286;49.858;8.768;2023-02-14T06:12:43;101135.13;;;1.48;56.81
6506;BME280;3286;49.858;8.768;2023-02-14T06:15:10;101141.78;;;1.58;56.13
6506;BME280;3286;49.858;8.768;2023-02-14T06:17:37;101144.69;;;1.16;58.02
6506;BME280;3286;49.858;8.768;2023-02-14T06:20:04;101138.91;;;1.38;58.30
6506;BME280;3286;49.858;8.768;2023-02-14T06:22:31;101137.38;;;1.61;57.71
6506;BME280;3286;49.858;8.768;2023-02-14T06:24:58;101136.69;;;1.24;59.39
6506;BME280;3286;49.858;8.768;2023-02-14T06:27:27;101136.94;;;1.46;59.85
6506;BME280;3286;49.858;8.768;2023-02-14T06:29:54;101139.47;;;1.78;58.86
6506;BME280;3286;49.858;8.768;2023-02-14T06:32:21;101136.75;;;2.11;58.48
6506;BME280;3286;49.858;8.768;2023-02-14T06:34:47;101147.66;;;1.95;59.38
6506;BME280;3286;49.858;8.768;2023-02-14T06:37:14;101146.94;;;1.90;60.74
6506;BME280;3286;49.858;8.768;2023-02-14T06:39:41;101138.78;;;2.29;60.87
6506;BME280;3286;49.858;8.768;2023-02-14T06:42:07;101142.25;;;2.30;60.58
6506;BME280;3286;49.858;8.768;2023-02-14T06:44:35;101146.41;;;2.63;60.02
6506;BME280;3286;49.858;8.768;2023-02-14T06:47:02;101142.03;;;2.63;59.48
6506;BME280;3286;49.858;8.768;2023-02-14T06:49:29;101144.88;;;2.57;59.71
6506;BME280;3286;49.858;8.768;2023-02-14T06:51:55;101145.03;;;2.78;58.93
6506;BME280;3286;49.858;8.768;2023-02-14T06:54:22;101146.00;;;2.75;60.16
6506;BME280;3286;49.858;8.768;2023-02-14T06:56:48;101146.34;;;2.91;60.11
6506;BME280;3286;49.858;8.768;2023-02-14T06:59:15;101149.81;;;2.65;61.20
6506;BME280;3286;49.858;8.768;2023-02-14T07:01:43;101152.03;;;2.77;61.46
6506;BME280;3286;49.858;8.768;2023-02-14T07:04:10;101159.91;;;2.49;62.63
6506;BME280;3286;49.858;8.768;2023-02-14T07:06:36;101147.91;;;3.21;61.18
6506;BME280;3286;49.858;8.768;2023-02-14T07:09:03;101150.66;;;3.17;60.52
6506;BME280;3286;49.858;8.768;2023-02-14T07:11:30;101144.84;;;3.09;61.02
6506;BME280;3286;49.858;8.768;2023-02-14T07:13:57;101159.31;;;2.12;63.78
6506;BME280;3286;49.858;8.768;2023-02-14T07:16:24;101155.44;;;2.52;64.03
6506;BME280;3286;49.858;8.768;2023-02-14T07:18:52;101147.22;;;3.15;61.05
6506;BME280;3286;49.858;8.768;2023-02-14T07:21:19;101152.06;;;3.26;61.11
6506;BME280;3286;49.858;8.768;2023-02-14T07:23:45;101154.06;;;3.43;61.29
6506;BME280;3286;49.858;8.768;2023-02-14T07:26:14;101150.56;;;2.68;62.79
6506;BME280;3286;49.858;8.768;2023-02-14T07:28:42;101153.84;;;2.48;64.51
6506;BME280;3286;49.858;8.768;2023-02-14T07:31:09;101159.97;;;2.99;62.39
6506;BME280;3286;49.858;8.768;2023-02-14T07:33:36;101158.94;;;2.51;64.38
6506;BME280;3286;49.858;8.768;2023-02-14T07:36:05;101156.34;;;3.03;62.52
6506;BME280;3286;49.858;8.768;2023-02-14T07:38:32;101155.69;;;3.22;61.39
6506;BME280;3286;49.858;8.768;2023-02-14T07:40:59;101149.72;;;3.18;61.33
6506;BME280;3286;49.858;8.768;2023-02-14T07:43:26;101143.13;;;3.80;60.38
6506;BME280;3286;49.858;8.768;2023-02-14T07:45:53;101152.16;;;3.95;59.05
6506;BME280;3286;49.858;8.768;2023-02-14T07:48:20;101140.97;;;4.35;57.77
6506;BME280;3286;49.858;8.768;2023-02-14T07:51:00;101147.69;;;4.20;58.73
6506;BME280;3286;49.858;8.768;2023-02-14T07:53:27;101146.81;;;4.20;58.65
6506;BME280;3286;49.858;8.768;2023-02-14T07:55:54;101145.47;;;4.32;58.20
6506;BME280;3286;49.858;8.768;2023-02-14T07:58:21;101157.09;;;4.25;58.15
6506;BME280;3286;49.858;8.768;2023-02-14T08:00:47;101142.44;;;4.20;58.26
6506;BME280;3286;49.858;8.768;2023-02-14T08:03:15;101150.28;;;4.63;57.20
6506;BME280;3286;49.858;8.768;2023-02-14T08:05:43;101152.22;;;3.45;60.83
6506;BME280;3286;49.858;8.768;2023-02-14T08:08:23;101143.53;;;4.15;58.35
6506;BME280;3286;49.858;8.768;2023-02-14T08:10:50;101142.81;;;3.65;59.69
6506;BME280;3286;49.858;8.768;2023-02-14T08:13:16;101150.44;;;2.98;60.96
6506;BME280;3286;49.858;8.768;2023-02-14T08:15:43;101150.91;;;2.84;63.41
6506;BME280;3286;49.858;8.768;2023-02-14T08:18:27;101148.72;;;3.23;62.10
6506;BME280;3286;49.858;8.768;2023-02-14T08:20:54;101156.38;;;2.77;63.29
6506;BME280;3286;49.858;8.768;2023-02-14T08:23:22;101160.34;;;2.88;62.27
6506;BME280;3286;49.858;8.768;2023-02-14T08:25:49;101157.88;;;2.84;63.34
6506;BME280;3286;49.858;8.768;2023-02-14T08:28:17;101151.28;;;3.72;60.74
6506;BME280;3286;49.858;8.768;2023-02-14T08:30:44;101151.59;;;3.86;59.69
6506;BME280;3286;49.858;8.768;2023-02-14T08:33:11;101158.06;;;3.04;60.81
6506;BME280;3286;49.858;8.768;2023-02-14T08:35:37;101158.97;;;1.66;66.71
6506;BME280;3286;49.858;8.768;2023-02-14T08:38:04;101160.56;;;2.55;63.80
6506;BME280;3286;49.858;8.768;2023-02-14T08:40:33;101164.38;;;2.72;63.26
6506;BME280;3286;49.858;8.768;2023-02-14T08:43:01;101158.84;;;2.54;64.63
6506;BME280;3286;49.858;8.768;2023-02-14T08:45:28;101159.13;;;3.72;60.68
6506;BME280;3286;49.858;8.768;2023-02-14T08:47:59;101161.06;;;4.13;59.02
6506;BME280;3286;49.858;8.768;2023-02-14T08:50:26;101156.97;;;4.50;57.91
6506;BME280;3286;49.858;8.768;2023-02-14T08:52:52;101149.47;;;4.84;56.63
6506;BME280;3286;49.858;8.768;2023-02-14T08:55:19;101150.31;;;4.84;56.68
6506;BME280;3286;49.858;8.768;2023-02-14T08:57:47;101153.53;;;4.70;56.50
6506;BME280;3286;49.858;8.768;2023-02-14T09:00:14;101152.72;;;4.68;57.35
6506;BME280;3286;49.858;8.768;2023-02-14T09:02:41;101142.09;;;4.73;57.71
6506;BME280;3286;49.858;8.768;2023-02-14T09:05:08;101153.19;;;3.90;58.51
6506;BME280;3286;49.858;8.768;2023-02-14T09:07:35;101159.63;;;3.82;59.77
6506;BME280;3286;49.858;8.768;2023-02-14T09:10:02;101155.78;;;3.19;60.98
6506;BME280;3286;49.858;8.768;2023-02-14T09:12:28;101154.84;;;3.45;61.27
6506;BME280;3286;49.858;8.768;2023-02-14T09:14:56;101148.09;;;4.32;58.74
6506;BME280;3286;49.858;8.768;2023-02-14T09:17:23;101147.97;;;4.35;57.95
6506;BME280;3286;49.858;8.768;2023-02-14T09:19:50;101141.94;;;4.97;57.16
6506;BME280;3286;49.858;8.768;2023-02-14T09:22:18;101144.75;;;5.13;56.51
6506;BME280;3286;49.858;8.768;2023-02-14T09:24:45;101145.53;;;4.53;56.71
6506;BME280;3286;49.858;8.768;2023-02-14T09:27:12;101147.19;;;4.11;58.23
6506;BME280;3286;49.858;8.768;2023-02-14T09:29:39;101144.22;;;3.01;61.54
6506;BME280;3286;49.858;8.768;2023-02-14T09:32:07;101148.09;;;3.63;60.55
6506;BME280;3286;49.858;8.768;2023-02-14T09:34:34;101145.47;;;3.63;60.06
6506;BME280;3286;49.858;8.768;2023-02-14T09:37:01;101140.06;;;3.92;58.69
6506;BME280;3286;49.858;8.768;2023-02-14T09:39:45;101146.22;;;3.91;60.00
6506;BME280;3286;49.858;8.768;2023-02-14T09:45:03;101130.34;;;5.02;56.43
6506;BME280;3286;49.858;8.768;2023-02-14T09:47:37;101130.50;;;3.45;59.98
6506;BME280;3286;49.858;8.768;2023-02-14T09:50:12;101136.50;;;3.47;61.24
6506;BME280;3286;49.858;8.768;2023-02-14T09:52:44;101132.47;;;4.08;59.62
6506;BME280;3286;49.858;8.768;2023-02-14T09:55:14;101130.78;;;4.50;58.75
6506;BME280;3286;49.858;8.768;2023-02-14T09:57:49;101137.38;;;4.81;58.05
6506;BME280;3286;49.858;8.768;2023-02-14T10:00:28;101125.13;;;4.61;57.95
6506;BME280;3286;49.858;8.768;2023-02-14T10:03:06;101127.03;;;5.39;54.72
6506;BME280;3286;49.858;8.768;2023-02-14T10:05:42;101142.25;;;3.57;60.77
6506;BME280;3286;49.858;8.768;2023-02-14T10:08:24;101130.25;;;5.04;57.20
6506;BME280;3286;49.858;8.768;2023-02-14T10:11:01;101136.16;;;5.87;54.62
6506;BME280;3286;49.858;8.768;2023-02-14T10:13:36;101128.50;;;6.02;54.10
6506;BME280;3286;49.858;8.768;2023-02-14T10:16:11;101134.22;;;5.91;54.22
6506;BME280;3286;49.858;8.768;2023-02-14T10:18:45;101130.28;;;5.63;54.02
6506;BME280;3286;49.858;8.768;2023-02-14T10:21:21;101135.88;;;5.93;54.40
6506;BME280;3286;49.858;8.768;2023-02-14T10:23:52;101134.16;;;5.92;53.66
6506;BME280;3286;49.858;8.768;2023-02-14T10:26:26;101131.03;;;6.93;51.73
6506;BME280;3286;49.858;8.768;2023-02-14T10:28:55;101129.81;;;7.00;52.07
6506;BME280;3286;49.858;8.768;2023-02-14T10:31:32;101139.06;;;7.07;51.38
6506;BME280;3286;49.858;8.768;2023-02-14T10:34:07;101125.41;;;7.01;51.01
6506;BME280;3286;49.858;8.768;2023-02-14T10:36:55;101119.50;;;7.47;50.42
6506;BME280;3286;49.858;8.768;2023-02-14T10:39:37;101114.69;;;7.21;50.97
6506;BME280;3286;49.858;8.768;2023-02-14T10:42:14;101114.41;;;7.10;50.30
6506;BME280;3286;49.858;8.768;2023-02-14T10:44:46;101107.25;;;6.96;51.20
6506;BME280;3286;49.858;8.768;2023-02-14T10:47:27;101113.00;;;7.20;50.40
6506;BME280;3286;49.858;8.768;2023-02-14T10:50:02;101102.81;;;7.30;49.74
6506;BME280;3286;49.858;8.768;2023-02-14T10:52:38;101116.31;;;6.55;51.58
6506;BME280;3286;49.858;8.768;2023-02-14T10:55:11;101115.94;;;5.89;53.78
6506;BME280;3286;49.858;8.768;2023-02-14T10:57:42;101104.75;;;5.47;55.21
6506;BME280;3286;49.858;8.768;2023-02-14T11:00:18;101102.09;;;5.68;54.13
6506;BME280;3286;49.858;8.768;2023-02-14T11:02:49;101100.50;;;6.02;53.78
6506;BME280;3286;49.858;8.768;2023-02-14T11:05:23;101090.84;;;5.84;54.33
6506;BME280;3286;49.858;8.768;2023-02-14T11:07:51;101097.63;;;5.51;54.50
6506;BME280;3286;49.858;8.768;2023-02-14T11:10:19;101094.25;;;5.86;54.40
6506;BME280;3286;49.858;8.768;2023-02-14T11:12:48;101083.28;;;6.33;52.92
6506;BME280;3286;49.858;8.768;2023-02-14T11:15:21;101087.72;;;6.14;53.83
6506;BME280;3286;49.858;8.768;2023-02-14T11:17:49;101076.53;;;6.45;53.37
6506;BME280;3286;49.858;8.768;2023-02-14T11:20:30;101069.41;;;7.16;50.85
6506;BME280;3286;49.858;8.768;2023-02-14T11:22:56;101067.28;;;6.56;52.44
6506;BME280;3286;49.858;8.768;2023-02-14T11:25:25;101070.88;;;6.88;51.34
6506;BME280;3286;49.858;8.768;2023-02-14T11:27:57;101063.09;;;7.03;51.54
6506;BME280;3286;49.858;8.768;2023-02-14T11:30:27;101061.38;;;6.50;52.01
6506;BME280;3286;49.858;8.768;2023-02-14T11:32:55;101053.75;;;6.63;52.19
6506;BME280;3286;49.858;8.768;2023-02-14T11:35:23;101054.72;;;6.96;51.97
6506;BME280;3286;49.858;8.768;2023-02-14T11:38:01;101056.78;;;6.56;52.13
6506;BME280;3286;49.858;8.768;2023-02-14T11:40:30;101053.69;;;6.99;52.00
6506;BME280;3286;49.858;8.768;2023-02-14T11:43:00;101052.81;;;7.48;51.28
6506;BME280;3286;49.858;8.768;2023-02-14T11:45:32;101044.94;;;7.64;50.68
6506;BME280;3286;49.858;8.768;2023-02-14T11:48:16;101036.00;;;7.66;49.81
6506;BME280;3286;49.858;8.768;2023-02-14T11:50:53;101036.59;;;7.23;51.58
6506;BME280;3286;49.858;8.768;2023-02-14T11:53:23;101033.38;;;7.18;51.08
6506;BME280;3286;49.858;8.768;2023-02-14T11:55:51;101029.66;;;7.38;50.89
6506;BME280;3286;49.858;8.768;2023-02-14T11:58:28;101021.63;;;7.88;50.22
6506;BME280;3286;49.858;8.768;2023-02-14T12:00:57;101028.19;;;8.42;48.67
6506;BME280;3286;49.858;8.768;2023-02-14T12:03:26;101027.78;;;7.57;50.34
6506;BME280;3286;49.858;8.768;2023-02-14T12:05:54;101025.88;;;7.75;50.24
6506;BME280;3286;49.858;8.768;2023-02-14T12:08:28;101014.84;;;8.15;49.37
6506;BME280;3286;49.858;8.768;2023-02-14T12:11:01;101020.84;;;6.90;52.41
6506;BME280;3286;49.858;8.768;2023-02-14T12:13:27;101018.34;;;7.04;51.68
6506;BME280;3286;49.858;8.768;2023-02-14T12:15:55;101012.03;;;6.91;52.48
6506;BME280;3286;49.858;8.768;2023-02-14T12:18:34;101014.78;;;7.05;52.11
6506;BME280;3286;49.858;8.768;2023-02-14T12:21:19;101006.47;;;7.45;51.84
6506;BME280;3286;49.858;8.768;2023-02-14T12:23:57;101001.66;;;6.72;52.52
6506;BME280;3286;49.858;8.768;2023-02-14T12:26:28;100997.38;;;6.87;53.21
6506;BME280;3286;49.858;8.768;2023-02-14T12:29:02;100992.84;;;6.73;52.50
6506;BME280;3286;49.858;8.768;2023-02-14T12:31:31;100989.66;;;7.80;50.04
6506;BME280;3286;49.858;8.768;2023-02-14T12:33:58;100982.50;;;8.12;50.40
6506;BME280;3286;49.858;8.768;2023-02-14T12:36:36;100981.84;;;8.09;48.96
6506;BME280;3286;49.858;8.768;2023-02-14T12:39:11;100974.31;;;8.03;49.39
6506;BME280;3286;49.858;8.768;2023-02-14T12:41:48;100970.13;;;8.29;49.14
6506;BME280;3286;49.858;8.768;2023-02-14T12:44:32;100970.75;;;8.63;48.22
6506;BME280;3286;49.858;8.768;2023-02-14T12:47:14;100967.41;;;8.31;49.35
6506;BME280;3286;49.858;8.768;2023-02-14T12:52:46;100964.88;;;8.44;49.00
6506;BME280;3286;49.858;8.768;2023-02-14T12:55:35;100960.59;;;7.51;50.77
6506;BME280;3286;49.858;8.768;2023-02-14T12:58:15;100946.72;;;8.24;49.74
6506;BME280;3286;49.858;8.768;2023-02-14T13:00:48;100947.59;;;8.83;47.79
6506;BME280;3286;49.858;8.768;2023-02-14T13:03:32;100948.31;;;8.27;48.80
6506;BME280;3286;49.858;8.768;2023-02-14T13:06:08;100951.78;;;7.36;51.30
6506;BME280;3286;49.858;8.768;2023-02-14T13:08:53;100946.19;;;7.42;50.93
6506;BME280;3286;49.858;8.768;2023-02-14T13:11:35;100950.03;;;7.36;51.27
6506;BME280;3286;49.858;8.768;2023-02-14T13:14:14;100939.94;;;8.20;49.93
6506;BME280;3286;49.858;8.768;2023-02-14T13:16:47;100938.72;;;7.81;51.72
6506;BME280;3286;49.858;8.768;2023-02-14T13:19:26;100933.47;;;8.40;49.87
6506;BME280;3286;49.858;8.768;2023-02-14T13:21:56;100931.97;;;8.65;48.50
6506;BME280;3286;49.858;8.768;2023-02-14T13:24:27;100924.34;;;8.46;49.93
6506;BME280;3286;49.858;8.768;2023-02-14T13:26:59;100927.28;;;8.85;48.83
6506;BME280;3286;49.858;8.768;2023-02-14T13:29:27;100922.72;;;9.02;47.97
6506;BME280;3286;49.858;8.768;2023-02-14T13:32:00;100918.97;;;8.48;49.43
6506;BME280;3286;49.858;8.768;2023-02-14T13:34:30;100921.16;;;8.55;48.92
6506;BME280;3286;49.858;8.768;2023-02-14T13:36:59;100923.25;;;8.65;48.64
6506;BME280;3286;49.858;8.768;2023-02-14T13:39:31;100920.84;;;8.89;48.58
6506;BME280;3286;49.858;8.768;2023-02-14T13:42:01;100920.47;;;8.95;48.05
6506;BME280;3286;49.858;8.768;2023-02-14T13:44:51;100908.38;;;9.74;46.08
6506;BME280;3286;49.858;8.768;2023-02-14T13:47:19;100907.66;;;9.84;45.58
6506;BME280;3286;49.858;8.768;2023-02-14T13:49:49;100910.06;;;9.75;46.55
6506;BME280;3286;49.858;8.768;2023-02-14T13:52:38;100903.72;;;9.64;46.47
6506;BME280;3286;49.858;8.768;2023-02-14T13:55:06;100898.34;;;9.79;45.99
6506;BME280;3286;49.858;8.768;2023-02-14T13:57:35;100903.09;;;9.06;47.81
6506;BME280;3286;49.858;8.768;2023-02-14T14:00:36;100895.72;;;9.79;46.39